Time;durP1;ratioP1;P1;durP2;ratioP2;P2;SDS_P1;SDS_P2;PMS_P1;PMS_P2;Temp;Humidity;BMP_temperature;BMP_pressure;BME280_temperature;BME280_humidity;BME280_pressure;Samples;Min_cycle;Max_cycle;Signal;HPM_P1;HPM_P2
2022/07/27 00:00:17;;;;;;;1.17;1.08;;;14.50;62.60;;;;;;5071834;28;20197;-39
2022/07/27 00:02:47;;;;;;;1.25;0.93;;;14.50;62.60;;;;;;5072184;28;20751;-45
2022/07/27 00:05:19;;;;;;;1.08;0.95;;;14.50;62.60;;;;;;5072272;28;20191;-39
2022/07/27 00:07:50;;;;;;;1.17;1.00;;;14.50;62.60;;;;;;5070801;28;20195;-42
2022/07/27 00:10:20;;;;;;;1.35;1.00;;;14.50;62.70;;;;;;5070737;28;20644;-43
2022/07/27 00:12:53;;;;;;;0.95;0.90;;;14.50;62.70;;;;;;5070930;28;20549;-42
2022/07/27 00:15:24;;;;;;;1.17;0.93;;;14.50;62.70;;;;;;5071161;28;20191;-38
2022/07/27 00:17:55;;;;;;;1.85;0.85;;;14.50;62.60;;;;;;5071317;28;20191;-39
2022/07/27 00:20:26;;;;;;;0.98;0.88;;;14.50;62.60;;;;;;5070820;28;20560;-39
2022/07/27 00:22:57;;;;;;;1.02;0.82;;;14.50;62.60;;;;;;5071476;28;20214;-39
2022/07/27 00:25:28;;;;;;;1.40;0.90;;;14.50;62.60;;;;;;5071767;28;20195;-42
2022/07/27 00:28:01;;;;;;;1.67;1.20;;;14.50;62.60;;;;;;5071737;28;20195;-39
2022/07/27 00:30:32;;;;;;;2.00;0.98;;;14.60;62.60;;;;;;5070576;28;20214;-47
2022/07/27 00:33:02;;;;;;;1.33;1.00;;;14.60;62.70;;;;;;5070184;28;20224;-42
2022/07/27 00:35:33;;;;;;;1.98;1.42;;;14.60;62.70;;;;;;5070554;28;20187;-43
2022/07/27 00:38:04;;;;;;;2.53;1.60;;;14.60;62.70;;;;;;5070737;28;20203;-42
2022/07/27 00:40:35;;;;;;;2.22;1.75;;;14.60;62.60;;;;;;5070199;28;20183;-53
2022/07/27 00:43:07;;;;;;;1.70;1.60;;;14.60;62.70;;;;;;5070963;28;20227;-44
2022/07/27 00:45:38;;;;;;;1.77;1.42;;;14.60;62.70;;;;;;5071437;28;20187;-47
2022/07/27 00:48:09;;;;;;;2.78;1.50;;;14.60;62.80;;;;;;5070661;28;20205;-46
2022/07/27 00:50:42;;;;;;;2.38;1.80;;;14.60;62.70;;;;;;5071347;28;20211;-39
2022/07/27 00:53:14;;;;;;;1.55;1.30;;;14.60;62.80;;;;;;5069907;28;20712;-38
2022/07/27 00:55:45;;;;;;;1.95;1.60;;;14.60;62.70;;;;;;5066880;28;20198;-43
2022/07/27 00:58:20;;;;;;;2.10;1.50;;;14.70;62.70;;;;;;5070653;28;20199;-48
2022/07/27 01:00:51;;;;;;;2.25;1.40;;;14.70;62.60;;;;;;5071161;28;20194;-39
2022/07/27 01:03:21;;;;;;;2.35;1.55;;;14.70;62.60;;;;;;5071544;28;20316;-44
2022/07/27 01:05:52;;;;;;;1.75;1.40;;;14.80;62.70;;;;;;5070467;28;20215;-39
2022/07/27 01:08:23;;;;;;;3.53;1.52;;;14.80;62.70;;;;;;5071249;28;20222;-40
2022/07/27 01:10:56;;;;;;;1.92;1.40;;;14.80;62.70;;;;;;5070103;28;20215;-47
2022/07/27 01:13:29;;;;;;;2.88;1.45;;;14.80;62.80;;;;;;5070767;28;20226;-42
2022/07/27 01:16:01;;;;;;;1.77;1.50;;;14.80;62.90;;;;;;5070517;28;20206;-39
2022/07/27 01:18:34;;;;;;;2.63;1.77;;;14.80;63.00;;;;;;5070900;28;20713;-39
2022/07/27 01:21:06;;;;;;;3.47;1.80;;;14.80;62.90;;;;;;5070127;28;20202;-46
2022/07/27 01:23:39;;;;;;;2.95;1.75;;;14.80;62.90;;;;;;5069717;28;20214;-53
2022/07/27 01:26:09;;;;;;;2.33;1.88;;;14.80;62.80;;;;;;5070696;28;20198;-56
2022/07/27 01:28:44;;;;;;;2.35;1.92;;;14.90;62.80;;;;;;5070257;28;20205;-42
2022/07/27 01:31:15;;;;;;;2.85;2.42;;;14.90;62.70;;;;;;5070344;28;20221;-48
2022/07/27 01:33:45;;;;;;;4.38;2.50;;;14.90;62.60;;;;;;5069890;28;20230;-39
2022/07/27 01:36:16;;;;;;;3.40;2.30;;;14.90;62.50;;;;;;5071135;28;20186;-42
2022/07/27 01:38:49;;;;;;;2.47;2.08;;;14.90;62.50;;;;;;5070368;28;20195;-39
2022/07/27 01:41:19;;;;;;;3.72;2.40;;;15.00;62.60;;;;;;5070433;28;20233;-47
2022/07/27 01:43:50;;;;;;;2.50;2.30;;;15.00;62.70;;;;;;5073312;28;20221;-39
2022/07/27 01:46:21;;;;;;;2.70;2.50;;;15.00;62.70;;;;;;5074395;28;20565;-39
2022/07/27 01:48:51;;;;;;;3.15;2.20;;;15.00;62.60;;;;;;5073825;28;20195;-40
2022/07/27 01:51:22;;;;;;;2.60;2.40;;;15.00;62.60;;;;;;5073134;28;20226;-41
2022/07/27 01:53:55;;;;;;;2.47;1.98;;;15.10;62.70;;;;;;5067254;28;20219;-39
2022/07/27 01:56:26;;;;;;;2.53;2.20;;;15.10;62.70;;;;;;5072250;28;20549;-41
2022/07/27 01:58:57;;;;;;;3.28;2.00;;;15.10;62.70;;;;;;5074330;28;20685;-39
2022/07/27 02:01:28;;;;;;;4.00;2.28;;;15.10;62.60;;;;;;5073948;28;20191;-46
2022/07/27 02:03:59;;;;;;;2.38;1.92;;;15.10;62.60;;;;;;5074543;28;20678;-39
2022/07/27 02:06:29;;;;;;;2.90;2.10;;;15.10;62.50;;;;;;5073774;28;20195;-39
2022/07/27 02:09:02;;;;;;;2.42;1.90;;;15.20;62.50;;;;;;5073819;28;20195;-39
2022/07/27 02:14:19;;;;;;;2.72;1.85;;;15.20;62.60;;;;;;5074396;28;20201;-40
2022/07/27 02:16:50;;;;;;;2.55;2.08;;;15.30;62.60;;;;;;5073437;28;20197;-47
2022/07/27 02:19:21;;;;;;;2.83;2.15;;;15.30;62.70;;;;;;5073574;28;20206;-42
2022/07/27 02:21:51;;;;;;;1.85;1.67;;;15.30;62.70;;;;;;5066152;28;20650;-40
2022/07/27 02:24:24;;;;;;;2.45;1.80;;;15.30;62.70;;;;;;5073947;28;20252;-39
2022/07/27 02:26:55;;;;;;;1.90;1.70;;;15.40;62.70;;;;;;5054168;28;20192;-39
2022/07/27 02:29:25;;;;;;;2.22;1.80;;;15.40;62.70;;;;;;5053958;28;20199;-41
2022/07/27 02:31:56;;;;;;;2.33;1.80;;;15.40;62.70;;;;;;5053176;28;20715;-45
2022/07/27 02:34:27;;;;;;;1.48;1.38;;;15.50;62.70;;;;;;5053751;28;20648;-41
2022/07/27 02:36:57;;;;;;;1.45;1.35;;;15.50;62.70;;;;;;5070698;28;20206;-45
2022/07/27 02:39:30;;;;;;;2.13;1.50;;;15.50;62.60;;;;;;5073120;28;20206;-39
2022/07/27 02:42:01;;;;;;;2.40;1.80;;;15.50;62.70;;;;;;5053607;28;20250;-40
2022/07/27 02:44:32;;;;;;;2.75;1.67;;;15.60;62.70;;;;;;5053152;28;20205;-39
2022/07/27 02:47:03;;;;;;;1.35;1.25;;;15.60;62.60;;;;;;5053490;28;20663;-39
2022/07/27 02:49:33;;;;;;;2.03;1.80;;;15.60;62.50;;;;;;5052617;28;20195;-41
2022/07/27 02:52:05;;;;;;;1.83;1.60;;;15.70;62.50;;;;;;5067196;28;20231;-41
2022/07/27 02:54:37;;;;;;;2.03;1.35;;;15.70;62.50;;;;;;5059166;28;20198;-41
2022/07/27 02:57:08;;;;;;;1.73;1.45;;;15.80;62.40;;;;;;5071593;28;20222;-46
2022/07/27 02:59:39;;;;;;;1.85;1.58;;;15.80;62.60;;;;;;5073004;28;20191;-40
2022/07/27 03:02:09;;;;;;;4.00;1.63;;;15.80;62.50;;;;;;5052575;28;20211;-40
2022/07/27 03:04:40;;;;;;;1.77;1.45;;;15.90;62.60;;;;;;5053797;28;20211;-41
2022/07/27 03:07:11;;;;;;;3.63;1.60;;;15.90;62.60;;;;;;5061805;28;20198;-42
2022/07/27 03:09:44;;;;;;;1.85;1.52;;;15.90;62.70;;;;;;5073115;28;20659;-42
2022/07/27 03:12:14;;;;;;;2.08;1.77;;;15.90;62.70;;;;;;5070079;28;20226;-41
2022/07/27 03:14:45;;;;;;;3.25;1.80;;;16.00;62.80;;;;;;5073236;28;20194;-41
2022/07/27 03:17:16;;;;;;;4.55;2.60;;;16.00;62.80;;;;;;5063441;28;20195;-45
2022/07/27 03:19:48;;;;;;;4.38;2.45;;;16.00;62.80;;;;;;5072813;28;20210;-44
2022/07/27 03:22:19;;;;;;;4.20;2.50;;;16.10;62.80;;;;;;5068974;28;20242;-46
2022/07/27 03:24:51;;;;;;;3.40;2.17;;;16.10;62.60;;;;;;5072654;28;20214;-43
2022/07/27 03:27:22;;;;;;;3.63;2.35;;;16.10;62.60;;;;;;5073026;28;20725;-40
2022/07/27 03:29:53;;;;;;;3.90;2.40;;;16.20;62.60;;;;;;5057651;28;20191;-40
2022/07/27 03:32:23;;;;;;;3.78;2.03;;;16.20;62.60;;;;;;5092735;28;20234;-53
2022/07/27 03:34:54;;;;;;;3.28;2.20;;;16.20;62.60;;;;;;5092424;28;20208;-39
2022/07/27 03:37:25;;;;;;;3.03;2.10;;;16.20;62.60;;;;;;5052414;28;20192;-50
2022/07/27 03:39:57;;;;;;;4.63;2.35;;;16.20;62.60;;;;;;5052134;28;20359;-40
2022/07/27 03:42:28;;;;;;;3.63;2.22;;;16.20;62.50;;;;;;5052057;28;20706;-41
2022/07/27 03:44:59;;;;;;;3.30;2.35;;;16.30;62.50;;;;;;5052644;28;20203;-44
2022/07/27 03:47:29;;;;;;;3.47;2.42;;;16.30;62.50;;;;;;5072934;28;20207;-43
2022/07/27 03:50:00;;;;;;;3.15;2.50;;;16.30;62.40;;;;;;5071986;28;20198;-48
2022/07/27 03:52:31;;;;;;;3.92;2.58;;;16.30;62.30;;;;;;5069954;28;20234;-42
2022/07/27 03:55:03;;;;;;;4.03;2.28;;;16.30;62.20;;;;;;5071301;28;20203;-39
2022/07/27 03:57:34;;;;;;;3.60;2.40;;;16.30;62.20;;;;;;5052199;28;20195;-43
2022/07/27 04:00:05;;;;;;;3.53;2.53;;;16.30;62.20;;;;;;5052363;28;20203;-45
2022/07/27 04:02:36;;;;;;;2.95;2.17;;;16.30;62.20;;;;;;5056095;28;20213;-42
2022/07/27 04:05:09;;;;;;;2.88;2.22;;;16.30;62.30;;;;;;5068006;28;20198;-45
2022/07/27 04:07:40;;;;;;;2.90;2.40;;;16.40;62.30;;;;;;5051793;28;20191;-51
2022/07/27 04:10:13;;;;;;;2.63;1.88;;;16.30;62.30;;;;;;5052887;28;20201;-39
2022/07/27 04:12:44;;;;;;;2.53;1.88;;;16.40;62.40;;;;;;5071355;28;20226;-48
2022/07/27 04:15:15;;;;;;;5.40;2.20;;;16.40;62.40;;;;;;5072319;28;20206;-40
2022/07/27 04:17:46;;;;;;;2.70;1.75;;;16.40;63.10;;;;;;5071790;28;20195;-42
2022/07/27 04:20:16;;;;;;;3.60;2.08;;;16.50;62.40;;;;;;5071046;28;20209;-46
2022/07/27 04:22:47;;;;;;;2.60;1.88;;;16.40;62.30;;;;;;5051083;28;20683;-41
2022/07/27 04:25:20;;;;;;;1.98;1.75;;;16.40;62.40;;;;;;5050927;28;20207;-46
2022/07/27 04:27:53;;;;;;;2.88;1.80;;;16.40;62.40;;;;;;5070867;28;20240;-44
2022/07/27 04:30:24;;;;;;;2.45;2.00;;;16.40;62.40;;;;;;5071144;28;20234;-40
2022/07/27 04:32:55;;;;;;;2.13;1.75;;;16.40;62.40;;;;;;5071279;28;20227;-40
2022/07/27 04:35:26;;;;;;;2.85;2.10;;;16.40;62.50;;;;;;5070867;28;20191;-39
2022/07/27 04:37:56;;;;;;;2.67;2.00;;;16.40;62.50;;;;;;5071691;28;20210;-42
2022/07/27 04:40:33;;;;;;;2.78;2.20;;;16.50;62.60;;;;;;5071221;28;20658;-46
2022/07/27 04:43:05;;;;;;;2.03;1.70;;;16.40;62.40;;;;;;5070589;28;20215;-41
2022/07/27 04:45:36;;;;;;;2.13;1.85;;;16.50;62.40;;;;;;5071231;28;20198;-45
2022/07/27 04:48:09;;;;;;;2.20;1.90;;;16.50;62.30;;;;;;5070810;28;20244;-45
2022/07/27 04:50:43;;;;;;;2.10;1.73;;;16.50;62.30;;;;;;5070423;28;20277;-52
2022/07/27 04:53:15;;;;;;;2.08;1.88;;;16.50;62.20;;;;;;5070462;28;20222;-58
2022/07/27 04:55:48;;;;;;;4.32;2.17;;;16.50;62.20;;;;;;5071539;28;20207;-51
2022/07/27 04:58:19;;;;;;;2.17;1.98;;;16.50;62.30;;;;;;5070861;28;20196;-56
2022/07/27 05:00:50;;;;;;;2.33;2.13;;;16.50;62.30;;;;;;5070441;28;20198;-53
2022/07/27 05:03:23;;;;;;;2.88;2.00;;;16.40;62.20;;;;;;5070043;28;20218;-56
2022/07/27 05:05:54;;;;;;;2.47;2.22;;;16.50;62.30;;;;;;5070757;28;20198;-42
2022/07/27 05:08:25;;;;;;;2.42;2.10;;;16.50;62.40;;;;;;5069974;28;20194;-57
2022/07/27 05:10:58;;;;;;;3.17;2.60;;;16.50;62.30;;;;;;5071057;28;20548;-56
2022/07/27 05:13:28;;;;;;;3.03;2.72;;;16.40;62.30;;;;;;5071179;28;20231;-52
2022/07/27 05:15:59;;;;;;;3.35;3.05;;;16.50;62.20;;;;;;5071226;28;20206;-46
2022/07/27 05:18:30;;;;;;;4.32;3.65;;;16.40;62.10;;;;;;5070233;28;20224;-56
2022/07/27 05:21:01;;;;;;;5.05;4.00;;;16.40;62.10;;;;;;5070384;28;20278;-43
2022/07/27 05:23:32;;;;;;;5.85;4.80;;;16.40;62.00;;;;;;5069878;28;20234;-53
2022/07/27 05:26:05;;;;;;;5.28;4.78;;;16.40;61.90;;;;;;5070366;28;20563;-45
2022/07/27 05:28:36;;;;;;;6.82;5.07;;;16.50;62.00;;;;;;5070822;28;20199;-43
2022/07/27 05:31:06;;;;;;;6.70;6.00;;;16.40;61.90;;;;;;5070184;28;20681;-45
2022/07/27 05:33:37;;;;;;;8.82;7.93;;;16.40;61.80;;;;;;5067835;28;20595;-43
2022/07/27 05:36:08;;;;;;;10.40;9.30;;;16.40;61.80;;;;;;5070225;28;20186;-52
2022/07/27 05:38:41;;;;;;;14.65;11.55;;;16.40;61.70;;;;;;5070043;28;20199;-53
2022/07/27 05:41:13;;;;;;;12.75;11.50;;;16.30;61.60;;;;;;5069601;28;20190;-55
2022/07/27 05:43:44;;;;;;;13.27;11.32;;;16.30;61.60;;;;;;5069756;28;20217;-52
2022/07/27 05:46:15;;;;;;;14.30;12.77;;;16.40;61.80;;;;;;5069705;28;20686;-54
2022/07/27 05:48:45;;;;;;;15.13;13.55;;;16.30;61.70;;;;;;5070012;28;20210;-42
2022/07/27 05:51:16;;;;;;;15.73;14.02;;;16.30;61.70;;;;;;5071069;28;20186;-46
2022/07/27 05:53:47;;;;;;;16.60;14.80;;;16.30;61.60;;;;;;5070185;28;20235;-46
2022/07/27 05:56:19;;;;;;;20.55;16.63;;;16.30;61.50;;;;;;5070764;28;20187;-46
2022/07/27 05:58:50;;;;;;;17.55;15.65;;;16.30;61.40;;;;;;5070017;28;20198;-41
2022/07/27 06:01:21;;;;;;;18.83;15.77;;;16.30;61.40;;;;;;5069671;28;20188;-49
2022/07/27 06:03:51;;;;;;;17.25;15.45;;;16.30;61.30;;;;;;5070129;28;20225;-47
2022/07/27 06:09:09;;;;;;;15.80;13.60;;;16.20;61.00;;;;;;5070367;28;20206;-39
2022/07/27 06:11:41;;;;;;;15.25;13.73;;;16.20;60.80;;;;;;5075397;28;20201;-41
2022/07/27 06:14:13;;;;;;;16.05;14.35;;;16.20;60.80;;;;;;5090279;28;20226;-39
2022/07/27 06:16:43;;;;;;;14.65;13.15;;;16.10;60.90;;;;;;5089626;28;20190;-38
2022/07/27 06:19:14;;;;;;;13.60;12.27;;;16.10;60.90;;;;;;5089896;28;20202;-47
2022/07/27 06:21:45;;;;;;;14.00;12.48;;;16.10;60.80;;;;;;5078182;28;20207;-50
2022/07/27 06:24:16;;;;;;;13.77;12.38;;;16.10;60.80;;;;;;5069665;28;20235;-40
2022/07/27 06:26:49;;;;;;;14.68;12.93;;;16.10;60.80;;;;;;5069052;28;20933;-38
2022/07/27 06:29:19;;;;;;;15.35;13.00;;;16.10;60.80;;;;;;5070696;28;20195;-39
2022/07/27 06:31:50;;;;;;;13.32;11.93;;;16.10;60.80;;;;;;5073781;28;20193;-47
2022/07/27 06:34:21;;;;;;;14.35;12.32;;;16.10;60.80;;;;;;5073063;28;20230;-38
2022/07/27 06:36:51;;;;;;;13.30;12.00;;;16.10;60.90;;;;;;5074032;28;20190;-38
2022/07/27 06:39:22;;;;;;;13.25;11.98;;;16.10;60.90;;;;;;5073630;28;20195;-46
2022/07/27 06:41:55;;;;;;;13.18;11.98;;;16.00;61.00;;;;;;5073681;28;20191;-38
2022/07/27 06:44:25;;;;;;;14.75;13.07;;;16.00;61.00;;;;;;5072737;28;20666;-38
2022/07/27 06:46:56;;;;;;;13.10;11.77;;;16.00;61.00;;;;;;5073498;28;20197;-38
2022/07/27 06:49:27;;;;;;;13.20;11.80;;;16.00;61.10;;;;;;5072885;28;20196;-38
2022/07/27 06:51:57;;;;;;;12.10;10.80;;;16.00;61.10;;;;;;5073100;28;20190;-38
2022/07/27 06:54:28;;;;;;;11.95;10.75;;;16.00;61.20;;;;;;5073046;28;20230;-38
2022/07/27 06:57:01;;;;;;;12.82;11.23;;;16.00;61.20;;;;;;5071953;28;20187;-41
2022/07/27 06:59:33;;;;;;;14.00;12.63;;;16.00;61.20;;;;;;5072963;28;20198;-46
2022/07/27 07:02:04;;;;;;;11.68;10.23;;;16.00;61.30;;;;;;5072202;28;20214;-41
2022/07/27 07:04:34;;;;;;;12.52;11.30;;;15.90;61.30;;;;;;5073484;28;20202;-38
2022/07/27 07:07:05;;;;;;;13.75;11.98;;;15.90;61.30;;;;;;5058826;28;20191;-41
2022/07/27 07:09:36;;;;;;;12.43;11.18;;;15.90;61.30;;;;;;5072763;28;20211;-38
2022/07/27 07:12:09;;;;;;;12.38;11.07;;;15.90;61.40;;;;;;5072856;28;20202;-38
2022/07/27 07:14:40;;;;;;;12.68;11.48;;;15.90;61.40;;;;;;5072530;28;20226;-40
2022/07/27 07:17:11;;;;;;;12.25;11.02;;;15.90;61.40;;;;;;5072425;28;20195;-37
2022/07/27 07:19:41;;;;;;;12.00;10.77;;;15.80;61.40;;;;;;5072381;28;20199;-38
2022/07/27 07:22:12;;;;;;;12.52;11.32;;;15.80;61.40;;;;;;5072412;28;20237;-43
2022/07/27 07:24:43;;;;;;;12.30;11.00;;;15.80;61.50;;;;;;5072306;28;20817;-38
2022/07/27 07:27:18;;;;;;;11.93;10.82;;;15.80;61.50;;;;;;5072522;28;20191;-38
2022/07/27 07:29:48;;;;;;;12.40;10.85;;;15.80;61.50;;;;;;5072320;28;20281;-43
2022/07/27 07:32:21;;;;;;;11.98;10.88;;;15.80;61.60;;;;;;5072584;28;20215;-40
2022/07/27 07:34:52;;;;;;;11.88;10.60;;;15.80;61.60;;;;;;5072578;28;20199;-38
2022/07/27 07:37:23;;;;;;;11.32;10.23;;;15.70;61.50;;;;;;5072670;28;20195;-38
2022/07/27 07:39:53;;;;;;;11.60;10.50;;;15.80;61.60;;;;;;5072460;28;20195;-38
2022/07/27 07:42:26;;;;;;;11.73;10.63;;;15.80;61.70;;;;;;5072033;28;20229;-38
2022/07/27 07:44:57;;;;;;;10.07;8.88;;;15.70;61.70;;;;;;5072085;28;20693;-43
2022/07/27 07:47:27;;;;;;;11.80;10.60;;;15.70;61.70;;;;;;5061071;28;20207;-42
2022/07/27 07:49:58;;;;;;;11.70;10.60;;;15.70;61.70;;;;;;5071990;28;20199;-41
2022/07/27 07:52:29;;;;;;;11.75;10.55;;;15.70;61.80;;;;;;5072067;28;20222;-40
2022/07/27 07:54:59;;;;;;;11.43;10.30;;;15.70;61.80;;;;;;5072673;28;20198;-40
2022/07/27 07:57:32;;;;;;;11.93;10.82;;;15.70;61.80;;;;;;5072161;28;20201;-38
2022/07/27 08:00:03;;;;;;;11.93;10.80;;;15.60;61.80;;;;;;5072144;28;20202;-41
2022/07/27 08:02:34;;;;;;;11.30;10.20;;;15.60;61.80;;;;;;5072309;28;20226;-38
2022/07/27 08:05:04;;;;;;;10.95;9.93;;;15.60;61.80;;;;;;5072786;28;20210;-49
2022/07/27 08:07:35;;;;;;;11.18;10.13;;;15.60;61.80;;;;;;5072175;28;20233;-38
2022/07/27 08:10:07;;;;;;;10.90;9.90;;;15.60;61.80;;;;;;5070574;28;20724;-38
2022/07/27 08:12:41;;;;;;;11.30;10.20;;;15.60;61.90;;;;;;5071690;28;20912;-42
2022/07/27 08:15:12;;;;;;;10.73;9.73;;;15.50;61.80;;;;;;5071573;28;20199;-38
2022/07/27 08:17:43;;;;;;;10.02;9.10;;;15.60;62.00;;;;;;5071817;28;20195;-38
2022/07/27 08:20:15;;;;;;;11.75;10.25;;;15.50;61.90;;;;;;5072256;28;20198;-42
2022/07/27 08:22:45;;;;;;;12.27;11.07;;;15.50;61.90;;;;;;5057813;28;20220;-42
2022/07/27 08:25:16;;;;;;;10.10;9.20;;;15.50;61.90;;;;;;5068079;28;20234;-39
2022/07/27 08:27:49;;;;;;;10.38;9.38;;;15.50;62.00;;;;;;5071968;28;20206;-38
2022/07/27 08:30:19;;;;;;;10.55;9.55;;;15.50;62.10;;;;;;5071780;28;20221;-38
2022/07/27 08:32:52;;;;;;;10.13;9.13;;;15.50;62.00;;;;;;5071025;28;20219;-38
2022/07/27 08:35:23;;;;;;;10.13;9.13;;;15.50;62.10;;;;;;5071679;28;20237;-38
2022/07/27 08:37:54;;;;;;;9.98;9.02;;;15.50;62.10;;;;;;5071802;28;20555;-38
2022/07/27 08:40:25;;;;;;;9.90;9.00;;;15.50;62.00;;;;;;5071636;28;20198;-38
2022/07/27 08:42:57;;;;;;;11.00;9.90;;;15.50;62.10;;;;;;5071719;28;20226;-38
2022/07/27 08:45:28;;;;;;;10.70;9.45;;;15.50;62.10;;;;;;5071581;28;20203;-38
2022/07/27 08:47:59;;;;;;;9.77;8.90;;;15.50;62.10;;;;;;5071932;28;20205;-41
2022/07/27 08:50:32;;;;;;;10.20;8.88;;;15.40;62.00;;;;;;5071816;28;20535;-38
2022/07/27 08:53:04;;;;;;;10.70;9.60;;;15.40;62.10;;;;;;5070981;28;20225;-40
2022/07/27 08:55:36;;;;;;;9.80;8.90;;;15.40;62.10;;;;;;5071406;28;20191;-40
2022/07/27 08:58:10;;;;;;;9.60;8.65;;;15.40;62.10;;;;;;5069895;28;20195;-38
2022/07/27 09:00:43;;;;;;;9.38;8.45;;;15.30;62.10;;;;;;5087216;28;20225;-41
2022/07/27 09:03:14;;;;;;;9.32;8.40;;;15.40;62.20;;;;;;5091041;28;20240;-38
2022/07/27 09:05:45;;;;;;;10.02;9.07;;;15.30;62.20;;;;;;5091493;28;20673;-41
2022/07/27 09:08:20;;;;;;;9.52;8.63;;;15.30;62.10;;;;;;5091483;28;20845;-38
2022/07/27 09:10:51;;;;;;;9.30;8.40;;;15.40;62.20;;;;;;5091357;28;20201;-38
2022/07/27 09:13:28;;;;;;;9.15;8.25;;;15.30;62.10;;;;;;5091267;28;20696;-38
2022/07/27 09:16:01;;;;;;;9.45;8.55;;;15.30;62.10;;;;;;5090744;28;20900;-38
2022/07/27 09:18:32;;;;;;;9.20;8.35;;;15.30;62.90;;;;;;5091338;28;20194;-38
2022/07/27 09:21:16;;;;;;;9.45;8.55;;;15.30;62.20;;;;;;5085047;28;20206;-40
2022/07/27 09:23:48;;;;;;;8.65;7.85;;;15.30;63.00;;;;;;5070938;28;20272;-37
2022/07/27 09:26:21;;;;;;;8.98;8.15;;;15.30;62.30;;;;;;5070997;28;20202;-38
2022/07/27 09:28:58;;;;;;;8.55;7.75;;;15.20;62.20;;;;;;5071101;28;20199;-38
2022/07/27 09:31:29;;;;;;;9.43;8.45;;;15.20;62.30;;;;;;5051370;28;20191;-38
2022/07/27 09:34:01;;;;;;;9.00;8.20;;;15.20;62.20;;;;;;5051126;28;20227;-44
2022/07/27 09:36:33;;;;;;;8.68;7.78;;;15.20;62.30;;;;;;5050552;28;20196;-38
2022/07/27 09:39:06;;;;;;;8.40;7.60;;;15.20;62.30;;;;;;5050583;28;20203;-38
2022/07/27 09:41:46;;;;;;;8.88;8.07;;;15.20;62.20;;;;;;5051244;28;20202;-38
2022/07/27 09:44:19;;;;;;;7.47;6.78;;;15.20;62.30;;;;;;5053237;28;20199;-38
2022/07/27 09:46:49;;;;;;;8.35;7.55;;;15.20;62.20;;;;;;5071402;28;20541;-38
2022/07/27 09:49:31;;;;;;;8.73;7.93;;;15.10;62.30;;;;;;5071043;28;20194;-38
2022/07/27 09:52:03;;;;;;;7.82;7.13;;;15.10;62.30;;;;;;5070918;28;20202;-38
2022/07/27 09:54:47;;;;;;;8.40;7.60;;;15.10;62.40;;;;;;5071229;28;20222;-43
2022/07/27 09:57:18;;;;;;;7.82;7.13;;;15.10;62.30;;;;;;5069558;28;20654;-38
2022/07/27 10:00:09;;;;;;;8.95;8.05;;;15.10;62.40;;;;;;5076294;28;20226;-41
2022/07/27 10:02:41;;;;;;;6.88;6.18;;;15.00;62.30;;;;;;5090960;28;20292;-38
2022/07/27 10:05:16;;;;;;;7.63;6.93;;;15.00;62.30;;;;;;5094802;28;20610;-38
2022/07/27 10:07:47;;;;;;;8.15;7.43;;;15.00;62.30;;;;;;5094654;28;20193;-37
2022/07/27 10:10:18;;;;;;;7.55;6.80;;;15.00;62.30;;;;;;5094627;28;20205;-38
2022/07/27 10:12:49;;;;;;;7.18;6.50;;;15.00;62.30;;;;;;5094604;28;20210;-38
2022/07/27 10:15:22;;;;;;;5.88;5.35;;;14.90;62.20;;;;;;5093223;28;20221;-38
2022/07/27 10:17:58;;;;;;;6.32;5.72;;;15.00;63.40;;;;;;5073449;28;20191;-38
2022/07/27 10:20:30;;;;;;;6.72;6.03;;;15.00;64.00;;;;;;5074031;28;20202;-40
2022/07/27 10:23:01;;;;;;;6.68;6.07;;;15.00;64.00;;;;;;5074097;28;20219;-38
2022/07/27 10:25:32;;;;;;;6.35;5.75;;;15.10;63.80;;;;;;5074278;28;20218;-41
2022/07/27 10:28:14;;;;;;;6.28;5.63;;;15.00;63.50;;;;;;5074598;28;20667;-38
2022/07/27 10:30:47;;;;;;;6.47;5.88;;;15.00;63.40;;;;;;5073505;28;20278;-48
2022/07/27 10:33:38;;;;;;;6.78;6.18;;;15.00;63.40;;;;;;5074062;28;20215;-43
2022/07/27 10:36:18;;;;;;;6.50;5.90;;;14.90;63.30;;;;;;5073778;28;20280;-44
2022/07/27 10:38:50;;;;;;;6.15;5.63;;;14.90;63.20;;;;;;5073973;28;20650;-39
2022/07/27 10:41:25;;;;;;;6.80;5.30;;;14.90;63.20;;;;;;5068393;28;20226;-38
2022/07/27 10:44:27;;;;;;;5.57;5.07;;;14.90;63.10;;;;;;5073295;28;20218;-41
2022/07/27 10:47:03;;;;;;;6.10;5.50;;;14.90;63.10;;;;;;5067991;28;20187;-38
2022/07/27 10:49:36;;;;;;;5.85;5.28;;;14.90;63.00;;;;;;5057937;28;20198;-48
2022/07/27 10:52:08;;;;;;;5.43;4.93;;;14.90;63.00;;;;;;5073214;28;20215;-49
2022/07/27 10:54:40;;;;;;;6.13;5.55;;;14.80;63.00;;;;;;5072446;28;20230;-45
2022/07/27 10:57:13;;;;;;;6.07;5.47;;;14.80;63.10;;;;;;5072950;28;20190;-39
2022/07/27 10:59:53;;;;;;;6.10;5.50;;;14.80;63.10;;;;;;5062814;28;20199;-48
2022/07/27 11:02:40;;;;;;;5.97;5.38;;;14.80;63.00;;;;;;5088082;28;20699;-48
2022/07/27 11:05:12;;;;;;;5.60;5.00;;;14.80;63.10;;;;;;5094233;28;20201;-41
2022/07/27 11:07:47;;;;;;;5.90;5.40;;;14.70;63.00;;;;;;5092965;28;20186;-51
2022/07/27 11:10:18;;;;;;;5.65;5.15;;;14.70;63.00;;;;;;5093600;28;20197;-52
2022/07/27 11:12:51;;;;;;;5.75;5.15;;;14.70;62.90;;;;;;5052093;28;20220;-54
2022/07/27 11:15:22;;;;;;;5.80;5.30;;;14.70;62.90;;;;;;5052065;28;20224;-60
2022/07/27 11:17:54;;;;;;;6.20;5.60;;;14.70;62.90;;;;;;5052905;28;20195;-59
2022/07/27 11:20:25;;;;;;;5.60;5.00;;;14.70;62.90;;;;;;5053243;28;20202;-51
2022/07/27 11:22:58;;;;;;;5.40;4.90;;;14.60;62.80;;;;;;5071897;28;20813;-52
2022/07/27 11:25:28;;;;;;;5.35;4.85;;;14.60;62.90;;;;;;5071733;28;20234;-50
2022/07/27 11:27:59;;;;;;;5.25;4.78;;;14.60;62.90;;;;;;5073123;28;20647;-57
2022/07/27 11:30:31;;;;;;;5.75;5.13;;;14.60;62.90;;;;;;5071966;28;20198;-47
2022/07/27 11:33:06;;;;;;;5.07;4.68;;;14.60;62.90;;;;;;5071911;28;20222;-60
2022/07/27 11:35:37;;;;;;;5.53;5.03;;;14.60;62.90;;;;;;5067981;28;20223;-56
2022/07/27 11:38:08;;;;;;;5.90;4.90;;;14.50;62.90;;;;;;5077489;28;20205;-38
2022/07/27 11:40:49;;;;;;;6.15;4.57;;;14.50;62.90;;;;;;5072647;28;20203;-38
2022/07/27 11:43:37;;;;;;;5.60;4.95;;;14.50;62.90;;;;;;5072239;28;20226;-42
2022/07/27 11:46:19;;;;;;;5.70;5.10;;;14.50;62.80;;;;;;5072007;28;20646;-38
2022/07/27 11:48:53;;;;;;;5.20;4.65;;;14.50;62.80;;;;;;5072582;28;20448;-38
2022/07/27 11:51:24;;;;;;;4.88;4.47;;;14.50;62.80;;;;;;5071542;28;20190;-41
2022/07/27 11:54:02;;;;;;;5.70;5.10;;;14.50;62.80;;;;;;5071691;28;20222;-38
2022/07/27 11:56:36;;;;;;;5.28;4.70;;;14.50;62.80;;;;;;5071977;28;20206;-38
2022/07/27 11:59:09;;;;;;;5.00;4.50;;;14.50;62.90;;;;;;5072614;28;20665;-41
2022/07/27 12:01:42;;;;;;;4.97;4.47;;;14.40;62.80;;;;;;5071270;28;20256;-40
2022/07/27 12:04:27;;;;;;;5.07;4.68;;;14.40;62.90;;;;;;5071505;28;20198;-38
2022/07/27 12:07:06;;;;;;;4.45;4.05;;;14.40;62.90;;;;;;5070697;28;20589;-38
2022/07/27 12:09:38;;;;;;;4.65;4.20;;;14.40;62.90;;;;;;5070275;28;20191;-37
2022/07/27 12:12:15;;;;;;;5.22;4.72;;;14.40;62.90;;;;;;5069779;28;20236;-38
2022/07/27 12:14:47;;;;;;;4.93;4.53;;;14.40;62.90;;;;;;5071036;28;20287;-46
2022/07/27 12:17:21;;;;;;;5.15;4.50;;;14.30;62.80;;;;;;5070938;28;20195;-38
2022/07/27 12:20:02;;;;;;;4.80;4.40;;;14.30;62.70;;;;;;5070903;28;20191;-40
2022/07/27 12:22:35;;;;;;;4.95;4.45;;;14.30;62.70;;;;;;5070561;28;20223;-37
2022/07/27 12:25:09;;;;;;;4.63;4.18;;;14.30;62.70;;;;;;5070145;28;20773;-38
2022/07/27 12:27:40;;;;;;;4.65;4.25;;;14.30;62.70;;;;;;5069963;28;20198;-39
2022/07/27 12:30:14;;;;;;;6.25;4.53;;;14.30;62.70;;;;;;5070627;28;20195;-38
2022/07/27 12:32:45;;;;;;;5.00;4.53;;;14.30;62.70;;;;;;5070486;28;20218;-38
2022/07/27 12:35:24;;;;;;;4.85;4.35;;;14.30;62.70;;;;;;5070425;28;20225;-38
2022/07/27 12:38:02;;;;;;;4.50;4.10;;;14.20;62.70;;;;;;5070294;28;20199;-38
2022/07/27 12:40:34;;;;;;;4.82;4.28;;;14.20;62.70;;;;;;5070194;28;20194;-39
2022/07/27 12:43:08;;;;;;;5.10;4.60;;;14.20;62.70;;;;;;5070139;28;20218;-38
2022/07/27 12:45:40;;;;;;;5.28;4.35;;;14.20;62.70;;;;;;5070496;28;20658;-40
2022/07/27 12:48:12;;;;;;;4.90;4.30;;;14.20;62.70;;;;;;5070380;28;20211;-38
2022/07/27 12:50:45;;;;;;;4.75;4.25;;;14.20;62.70;;;;;;5070336;28;20226;-41
2022/07/27 12:53:17;;;;;;;4.50;4.10;;;14.20;62.70;;;;;;5070281;28;20218;-40
2022/07/27 12:55:48;;;;;;;4.45;4.05;;;14.20;62.70;;;;;;5069502;28;20219;-42
2022/07/27 12:58:22;;;;;;;4.80;4.32;;;14.20;62.70;;;;;;5069647;28;20198;-43
2022/07/27 13:00:53;;;;;;;4.25;3.85;;;14.10;62.60;;;;;;5069742;28;20562;-38
2022/07/27 13:03:24;;;;;;;4.47;4.07;;;14.10;62.60;;;;;;5070212;28;20215;-46
2022/07/27 13:05:57;;;;;;;4.28;3.88;;;14.10;62.60;;;;;;5070630;28;20251;-54
2022/07/27 13:08:27;;;;;;;4.55;4.15;;;14.10;62.60;;;;;;5069859;28;20206;-43
2022/07/27 13:10:59;;;;;;;3.70;3.40;;;14.10;62.70;;;;;;5069557;28;20617;-42
2022/07/27 13:13:30;;;;;;;4.07;3.78;;;14.10;62.60;;;;;;5069724;28;20228;-42